createdAt,value
2019-02-17T00:02:39.598Z,95972.52
2019-02-17T00:05:47.181Z,95973.19
2019-02-17T00:08:54.439Z,95969.24
2019-02-17T00:12:01.713Z,95972.91
2019-02-17T00:15:09.362Z,95967.69
2019-02-17T00:18:16.968Z,95971.22
2019-02-17T00:21:24.134Z,95967.03
2019-02-17T00:24:31.757Z,95967.22
2019-02-17T00:27:39.673Z,95967.53
2019-02-17T00:30:46.962Z,95963.23
2019-02-17T00:33:54.417Z,95959.78
2019-02-17T00:37:01.605Z,95959.05
2019-02-17T00:40:09.435Z,95962.58
2019-02-17T00:43:16.703Z,95960.70
2019-02-17T00:46:24.380Z,95970.08
2019-02-17T00:49:31.919Z,95969.57
2019-02-17T00:52:39.439Z,95970.55
2019-02-17T00:55:47.164Z,95969.92
2019-02-17T00:58:54.862Z,95972.32
2019-02-17T01:02:02.148Z,95972.08
2019-02-17T01:05:09.861Z,95971.12
2019-02-17T01:08:17.445Z,95964.61
2019-02-17T01:11:25.216Z,95959.92
2019-02-17T01:14:32.708Z,95967.67
2019-02-17T01:17:40.090Z,95964.39
2019-02-17T01:20:48.148Z,95962.11
2019-02-17T01:23:55.348Z,95961.43
2019-02-17T01:27:03.102Z,95960.64
2019-02-17T01:30:13.119Z,95958.54
2019-02-17T01:33:20.375Z,95959.91
2019-02-17T01:36:27.667Z,95964.51
2019-02-17T01:39:35.460Z,95955.50
2019-02-17T01:42:42.759Z,95954.87
2019-02-17T01:45:50.316Z,95954.91
2019-02-17T01:48:57.871Z,95955.16
2019-02-17T01:52:05.029Z,95946.73
2019-02-17T01:55:12.288Z,95949.21
2019-02-17T01:58:19.930Z,95951.31
2019-02-17T02:01:27.078Z,95942.87
2019-02-17T02:04:34.519Z,95945.43
2019-02-17T02:07:41.988Z,95933.55
2019-02-17T02:10:49.582Z,95935.89
2019-02-17T02:13:56.961Z,95932.68
2019-02-17T02:17:04.342Z,95928.95
2019-02-17T02:20:12.077Z,95929.79
2019-02-17T02:23:19.237Z,95924.66
2019-02-17T02:26:26.506Z,95918.15
2019-02-17T02:29:40.768Z,95914.74
2019-02-17T02:32:42.948Z,95916.62
2019-02-17T02:35:50.234Z,95917.80
2019-02-17T02:38:57.668Z,95916.05
2019-02-17T02:42:05.258Z,95916.95
2019-02-17T02:45:13.061Z,95914.79
2019-02-17T02:48:20.871Z,95911.77
2019-02-17T02:51:28.046Z,95912.09
2019-02-17T02:54:35.546Z,95914.74
2019-02-17T02:57:43.248Z,95913.69
2019-02-17T03:00:50.746Z,95907.95
2019-02-17T03:03:57.921Z,95905.70
2019-02-17T03:07:08.548Z,95906.20
2019-02-17T03:10:15.736Z,95904.75
2019-02-17T03:13:23.210Z,95904.91
2019-02-17T03:16:30.608Z,95907.06
2019-02-17T03:19:38.183Z,95911.14
2019-02-17T03:22:45.352Z,95907.67
2019-02-17T03:25:52.867Z,95913.63
2019-02-17T03:29:00.449Z,95913.45
2019-02-17T03:32:07.610Z,95906.31
2019-02-17T03:35:14.827Z,95912.10
2019-02-17T03:38:22.241Z,95913.69
2019-02-17T03:41:29.624Z,95909.98
2019-02-17T03:44:37.844Z,95915.37
2019-02-17T03:47:45.125Z,95912.84
2019-02-17T03:50:52.301Z,95920.00
2019-02-17T03:53:59.693Z,95916.95
2019-02-17T03:57:07.631Z,95915.87
2019-02-17T04:00:17.335Z,95915.59
2019-02-17T04:03:24.556Z,95915.98
2019-02-17T04:06:32.018Z,95911.69
2019-02-17T04:09:39.595Z,95914.55
2019-02-17T04:12:47.515Z,95918.13
2019-02-17T04:15:54.981Z,95915.84
2019-02-17T04:19:02.448Z,95914.17
2019-02-17T04:22:09.845Z,95913.78
2019-02-17T04:25:17.458Z,95910.53
2019-02-17T04:28:25.081Z,95913.06
2019-02-17T04:31:32.680Z,95913.78
2019-02-17T04:34:40.199Z,95912.52
2019-02-17T04:37:47.476Z,95913.17
2019-02-17T04:40:54.880Z,95914.44
2019-02-17T04:44:02.547Z,95915.45
2019-02-17T04:47:10.059Z,95908.98
2019-02-17T04:50:17.412Z,95914.47
2019-02-17T04:53:24.805Z,95917.96
2019-02-17T04:56:32.401Z,95915.58
2019-02-17T04:59:39.787Z,95916.20
2019-02-17T05:02:47.176Z,95911.61
2019-02-17T05:05:54.890Z,95913.17
2019-02-17T05:09:04.064Z,95909.80
2019-02-17T05:12:11.486Z,95915.22
2019-02-17T05:15:18.877Z,95913.80
2019-02-17T05:18:26.314Z,95911.62
2019-02-17T05:21:33.688Z,95914.73
2019-02-17T05:24:41.235Z,95914.39
2019-02-17T05:27:48.878Z,95919.30
2019-02-17T05:30:56.800Z,95910.54
2019-02-17T05:34:04.076Z,95917.11
2019-02-17T05:37:11.627Z,95917.50
2019-02-17T05:40:18.935Z,95925.30
2019-02-17T05:43:26.378Z,95923.87
2019-02-17T05:46:33.890Z,95925.81
2019-02-17T05:49:41.069Z,95919.71
2019-02-17T05:52:49.001Z,95923.73
2019-02-17T05:55:56.405Z,95927.22
2019-02-17T05:59:04.169Z,95927.88
2019-02-17T06:02:11.339Z,95926.72
2019-02-17T06:05:18.975Z,95924.50
2019-02-17T06:08:27.064Z,95926.73
2019-02-17T06:11:35.676Z,95931.37
2019-02-17T06:14:43.293Z,95934.48
2019-02-17T06:17:50.823Z,95937.58
2019-02-17T06:20:58.550Z,95940.59
2019-02-17T06:24:06.274Z,95946.30
2019-02-17T06:27:13.901Z,95946.37
2019-02-17T06:30:21.494Z,95954.01
2019-02-17T06:33:28.666Z,95947.52
2019-02-17T06:36:36.513Z,95958.28
2019-02-17T06:39:43.927Z,95959.50
2019-02-17T06:42:51.979Z,95961.39
2019-02-17T06:46:00.558Z,95961.59
2019-02-17T06:49:08.304Z,95968.30
2019-02-17T06:52:15.889Z,95967.69
2019-02-17T06:55:37.897Z,95970.12
2019-02-17T06:58:45.390Z,95966.76
2019-02-17T07:01:53.059Z,95964.86
2019-02-17T07:05:06.369Z,95967.41
2019-02-17T07:08:13.686Z,95966.18
2019-02-17T07:11:23.388Z,95972.65
2019-02-17T07:14:31.834Z,95971.09
2019-02-17T07:17:41.052Z,95965.81
2019-02-17T07:20:48.685Z,95966.79
2019-02-17T07:23:56.158Z,95961.82
2019-02-17T07:27:03.863Z,95956.78
2019-02-17T07:30:11.604Z,95957.82
2019-02-17T07:33:19.447Z,95961.16
2019-02-17T07:36:26.999Z,95958.67
2019-02-17T07:39:35.651Z,95957.73
2019-02-17T07:42:43.732Z,95961.95
2019-02-17T07:45:51.952Z,95962.50
2019-02-17T07:48:59.435Z,95964.73
2019-02-17T07:52:06.899Z,95966.77
2019-02-17T07:55:14.604Z,95965.83
2019-02-17T07:58:22.298Z,95970.99
2019-02-17T08:01:29.857Z,95976.78
2019-02-17T08:04:37.409Z,95969.46
2019-02-17T08:07:44.889Z,95968.25
2019-02-17T08:10:52.440Z,95974.23
2019-02-17T08:13:59.806Z,95967.84
2019-02-17T08:17:07.202Z,95968.78
2019-02-17T08:20:14.888Z,95971.65
2019-02-17T08:23:22.253Z,95971.95
2019-02-17T08:26:29.819Z,95970.01
2019-02-17T08:29:37.989Z,95962.98
2019-02-17T08:32:45.704Z,95969.72
2019-02-17T08:35:53.191Z,95957.97
2019-02-17T08:39:00.966Z,95954.28
2019-02-17T08:42:08.732Z,95963.47
2019-02-17T08:45:16.086Z,95961.11
2019-02-17T08:48:24.604Z,95951.84
2019-02-17T08:51:32.396Z,95950.90
2019-02-17T08:54:40.746Z,95947.81
2019-02-17T08:57:48.122Z,95944.17
2019-02-17T09:00:55.455Z,95947.89
2019-02-17T09:04:03.007Z,95947.91
2019-02-17T09:07:11.515Z,95943.86
2019-02-17T09:10:20.139Z,95939.55
2019-02-17T09:13:27.302Z,95939.08
2019-02-17T09:16:35.030Z,95939.16
2019-02-17T09:19:42.799Z,95946.04
2019-02-17T09:22:50.303Z,95942.78
2019-02-17T09:25:58.136Z,95941.62
2019-02-17T09:29:05.858Z,95940.02
2019-02-17T09:32:16.229Z,95936.45
2019-02-17T09:35:22.772Z,95933.67
2019-02-17T09:38:30.683Z,95927.98
2019-02-17T09:41:37.878Z,95933.73
2019-02-17T09:44:45.294Z,95932.89
2019-02-17T09:47:53.629Z,95930.47
2019-02-17T09:51:01.480Z,95931.09
2019-02-17T09:54:09.332Z,95937.10
2019-02-17T09:57:16.792Z,95930.64
2019-02-17T10:00:24.074Z,95931.00
2019-02-17T10:03:32.094Z,95926.17
2019-02-17T10:06:40.893Z,95930.87
2019-02-17T10:09:49.015Z,95929.89
2019-02-17T10:12:56.759Z,95921.73
2019-02-17T10:16:04.557Z,95926.12
2019-02-17T10:19:11.940Z,95916.83
2019-02-17T10:22:19.421Z,95921.16
2019-02-17T10:25:27.170Z,95915.55
2019-02-17T10:28:42.154Z,95912.62
2019-02-17T10:31:44.889Z,95919.36
2019-02-17T10:34:52.875Z,95912.66
2019-02-17T10:38:00.154Z,95912.77
2019-02-17T10:41:07.995Z,95910.48
2019-02-17T10:44:16.083Z,95909.34
2019-02-17T10:47:23.634Z,95906.42
2019-02-17T10:50:30.905Z,95905.16
2019-02-17T10:53:38.524Z,95898.91
2019-02-17T10:56:45.702Z,95891.18
2019-02-17T10:59:52.854Z,95890.52
2019-02-17T11:03:07.170Z,95882.88
2019-02-17T11:06:14.983Z,95884.50
2019-02-17T11:09:23.040Z,95876.07
2019-02-17T11:12:33.320Z,95878.10
2019-02-17T11:15:40.901Z,95875.52
2019-02-17T11:18:51.937Z,95874.50
2019-02-17T11:21:59.827Z,95859.63
2019-02-17T11:25:08.002Z,95847.56
2019-02-17T11:28:15.950Z,95853.34
2019-02-17T11:31:23.121Z,95847.36
2019-02-17T11:34:30.972Z,95838.50
2019-02-17T11:37:38.369Z,95838.92
2019-02-17T11:40:46.237Z,95826.45
2019-02-17T11:43:54.608Z,95824.12
2019-02-17T11:47:02.698Z,95822.11
2019-02-17T11:50:10.569Z,95818.47
2019-02-17T11:53:19.032Z,95821.77
2019-02-17T11:56:26.890Z,95811.34
2019-02-17T11:59:35.239Z,95805.71
2019-02-17T12:02:42.738Z,95799.69
2019-02-17T12:05:50.658Z,95797.78
2019-02-17T12:08:58.267Z,95796.77
2019-02-17T12:12:06.139Z,95786.75
2019-02-17T12:15:14.169Z,95791.25
2019-02-17T12:18:22.124Z,95789.98
2019-02-17T12:21:49.638Z,95786.76
2019-02-17T12:25:03.159Z,95786.29
2019-02-17T12:28:16.206Z,95779.63
2019-02-17T12:31:27.493Z,95777.21
2019-02-17T12:34:35.317Z,95776.36
2019-02-17T12:37:43.497Z,95768.09
2019-02-17T12:40:51.053Z,95766.62
2019-02-17T12:43:58.806Z,95759.53
2019-02-17T12:47:06.549Z,95762.45
2019-02-17T12:50:14.299Z,95754.13
2019-02-17T12:53:21.987Z,95755.35
2019-02-17T12:56:29.842Z,95748.57
2019-02-17T12:59:38.325Z,95739.55
2019-02-17T13:02:47.144Z,95738.97
2019-02-17T13:05:56.678Z,95742.54
2019-02-17T13:09:07.092Z,95738.08
2019-02-17T13:12:15.736Z,95736.62
2019-02-17T13:15:24.069Z,95730.58
2019-02-17T13:18:33.113Z,95728.02
2019-02-17T13:21:44.870Z,95721.99
2019-02-17T13:24:52.912Z,95723.61
2019-02-17T13:28:01.115Z,95720.34
2019-02-17T13:31:08.894Z,95715.59
2019-02-17T13:34:16.949Z,95720.55
2019-02-17T13:37:25.026Z,95714.00
2019-02-17T13:40:33.067Z,95715.84
2019-02-17T13:43:40.782Z,95710.47
2019-02-17T13:46:49.089Z,95711.59
2019-02-17T13:49:57.923Z,95702.02
2019-02-17T13:53:11.786Z,95708.11
2019-02-17T13:56:21.243Z,95703.38
2019-02-17T13:59:29.958Z,95704.11
2019-02-17T14:02:38.127Z,95706.12
2019-02-17T14:05:46.140Z,95702.36
2019-02-17T14:08:54.396Z,95696.20
2019-02-17T14:12:02.402Z,95694.95
2019-02-17T14:15:12.576Z,95696.98
2019-02-17T14:18:21.614Z,95697.34
2019-02-17T14:21:29.877Z,95699.50
2019-02-17T14:24:37.493Z,95694.72
2019-02-17T14:27:45.693Z,95694.87
2019-02-17T14:30:54.007Z,95694.31
2019-02-17T14:34:02.337Z,95693.06
2019-02-17T14:37:10.516Z,95687.06
2019-02-17T14:40:18.320Z,95682.02
2019-02-17T14:43:27.770Z,95679.59
2019-02-17T14:46:35.838Z,95684.80
2019-02-17T14:49:43.741Z,95676.93
2019-02-17T14:52:52.006Z,95679.47
2019-02-17T14:59:15.845Z,95675.77
2019-02-17T15:02:24.476Z,95675.09
2019-02-17T15:05:32.002Z,95670.75
2019-02-17T15:08:39.873Z,95673.41
2019-02-17T15:11:47.327Z,95661.86
2019-02-17T15:14:55.768Z,95659.95
2019-02-17T15:18:03.679Z,95664.95
2019-02-17T15:21:11.819Z,95663.85
2019-02-17T15:24:19.197Z,95655.41
2019-02-17T15:27:27.377Z,95653.23
2019-02-17T15:30:35.250Z,95661.63
2019-02-17T15:33:43.531Z,95657.19
2019-02-17T15:36:51.023Z,95656.81
2019-02-17T15:39:58.877Z,95651.67
2019-02-17T15:43:06.653Z,95652.98
2019-02-17T15:46:14.008Z,95645.17
2019-02-17T15:49:21.637Z,95639.04
2019-02-17T15:52:30.142Z,95643.79
2019-02-17T15:55:38.314Z,95636.22
2019-02-17T15:58:46.278Z,95636.14
2019-02-17T16:01:54.460Z,95635.93
2019-02-17T16:05:02.406Z,95638.06
2019-02-17T16:08:10.487Z,95634.15
2019-02-17T16:11:17.896Z,95636.33
2019-02-17T16:14:25.782Z,95642.28
2019-02-17T16:17:33.401Z,95643.97
2019-02-17T16:20:41.494Z,95642.61
2019-02-17T16:23:49.697Z,95638.52
2019-02-17T16:26:57.348Z,95637.34
2019-02-17T16:30:09.010Z,95640.36
2019-02-17T16:33:16.735Z,95643.47
2019-02-17T16:36:23.912Z,95641.62
2019-02-17T16:39:32.102Z,95644.98
2019-02-17T16:42:40.025Z,95647.70
2019-02-17T16:45:47.668Z,95647.97
2019-02-17T16:48:56.423Z,95653.14
2019-02-17T16:52:03.886Z,95651.70
2019-02-17T16:55:11.839Z,95653.39
2019-02-17T16:58:19.523Z,95649.13
2019-02-17T17:01:26.856Z,95654.59
2019-02-17T17:04:34.120Z,95656.91
2019-02-17T17:07:41.981Z,95653.41
2019-02-17T17:10:50.292Z,95656.41
2019-02-17T17:13:58.642Z,95653.70
2019-02-17T17:17:06.106Z,95660.66
2019-02-17T17:20:14.439Z,95660.47
2019-02-17T17:23:22.504Z,95656.85
2019-02-17T17:26:30.187Z,95661.11
2019-02-17T17:29:37.368Z,95658.28
2019-02-17T17:32:45.505Z,95664.62
2019-02-17T17:35:52.699Z,95663.59
2019-02-17T17:39:00.019Z,95667.00
2019-02-17T17:42:07.859Z,95666.49
2019-02-17T17:45:15.357Z,95667.02
2019-02-17T17:48:22.943Z,95674.61
2019-02-17T17:51:30.369Z,95673.03
2019-02-17T17:54:37.764Z,95676.70
2019-02-17T17:57:45.132Z,95674.85
2019-02-17T18:00:52.841Z,95678.50
2019-02-17T18:04:01.551Z,95679.27
2019-02-17T18:07:09.637Z,95679.00
2019-02-17T18:10:17.325Z,95689.75
2019-02-17T18:13:24.676Z,95688.73
2019-02-17T18:16:32.363Z,95687.33
2019-02-17T18:19:40.515Z,95690.16
2019-02-17T18:22:47.786Z,95695.37
2019-02-17T18:25:56.096Z,95694.84
2019-02-17T18:29:03.984Z,95697.20
2019-02-17T18:32:11.291Z,95700.80
2019-02-17T18:35:20.647Z,95697.09
2019-02-17T18:38:29.239Z,95695.46
2019-02-17T18:41:37.787Z,95689.95
2019-02-17T18:44:46.008Z,95689.13
2019-02-17T18:47:53.963Z,95686.19
2019-02-17T18:51:01.902Z,95684.02
2019-02-17T18:54:10.326Z,95686.63
2019-02-17T18:57:17.729Z,95691.76
2019-02-17T19:00:25.706Z,95686.55
2019-02-17T19:03:34.211Z,95682.11
2019-02-17T19:06:41.693Z,95681.00
2019-02-17T19:09:49.589Z,95681.97
2019-02-17T19:12:57.732Z,95685.28
2019-02-17T19:16:05.841Z,95685.84
2019-02-17T19:19:16.828Z,95688.45
2019-02-17T19:22:24.468Z,95684.16
2019-02-17T19:25:32.441Z,95688.25
2019-02-17T19:28:41.356Z,95687.16
2019-02-17T19:31:49.063Z,95690.36
2019-02-17T19:34:56.807Z,95687.09
2019-02-17T19:38:04.981Z,95685.42
2019-02-17T19:41:12.893Z,95686.81
2019-02-17T19:44:21.355Z,95685.23
2019-02-17T19:47:28.890Z,95689.66
2019-02-17T19:50:36.786Z,95696.23
2019-02-17T19:53:44.826Z,95693.23
2019-02-17T19:56:52.939Z,95688.36
2019-02-17T20:00:00.694Z,95689.66
2019-02-17T20:03:26.162Z,95683.89
2019-02-17T20:06:34.147Z,95689.16
2019-02-17T20:09:41.555Z,95691.02
2019-02-17T20:12:49.973Z,95691.05
2019-02-17T20:15:58.013Z,95687.61
2019-02-17T20:19:06.048Z,95686.81
2019-02-17T20:22:13.801Z,95688.44
2019-02-17T20:25:21.787Z,95683.22
2019-02-17T20:28:40.761Z,95681.83
2019-02-17T20:31:38.804Z,95684.96
2019-02-17T20:34:46.629Z,95686.63
2019-02-17T20:37:55.289Z,95679.09
2019-02-17T20:41:03.545Z,95685.91
2019-02-17T20:44:11.815Z,95686.14
2019-02-17T20:47:19.129Z,95679.02
2019-02-17T20:50:27.418Z,95680.88
2019-02-17T20:53:35.108Z,95679.17
2019-02-17T20:56:42.843Z,95677.55
2019-02-17T20:59:51.274Z,95672.97
2019-02-17T21:02:59.016Z,95680.48
2019-02-17T21:06:12.717Z,95677.47
2019-02-17T21:09:17.639Z,95676.36
2019-02-17T21:12:25.397Z,95672.25
2019-02-17T21:15:33.099Z,95666.70
2019-02-17T21:18:40.537Z,95665.69
2019-02-17T21:21:47.984Z,95664.09
2019-02-17T21:24:56.179Z,95662.88
2019-02-17T21:28:03.508Z,95668.17
2019-02-17T21:31:11.699Z,95664.62
2019-02-17T21:34:19.139Z,95662.23
2019-02-17T21:37:27.330Z,95666.42
2019-02-17T21:40:35.908Z,95664.26
2019-02-17T21:43:44.187Z,95665.08
2019-02-17T21:46:51.516Z,95663.93
2019-02-17T21:49:59.412Z,95664.86
2019-02-17T21:53:10.383Z,95661.69
2019-02-17T21:56:17.442Z,95665.36
2019-02-17T21:59:25.530Z,95663.27
2019-02-17T22:02:33.311Z,95662.17
2019-02-17T22:05:40.883Z,95656.78
2019-02-17T22:08:48.597Z,95652.14
2019-02-17T22:11:56.787Z,95653.35
2019-02-17T22:15:06.200Z,95653.59
2019-02-17T22:18:14.274Z,95655.13
2019-02-17T22:21:22.126Z,95650.33
2019-02-17T22:24:29.619Z,95650.33
2019-02-17T22:27:37.244Z,95647.19
2019-02-17T22:30:44.875Z,95647.23
2019-02-17T22:33:53.102Z,95641.56
2019-02-17T22:37:01.864Z,95640.40
2019-02-17T22:40:09.633Z,95644.45
2019-02-17T22:43:17.369Z,95641.70
2019-02-17T22:46:24.719Z,95644.60
2019-02-17T22:49:32.820Z,95636.26
2019-02-17T22:52:40.520Z,95644.41
2019-02-17T22:55:48.220Z,95645.34
2019-02-17T22:58:55.912Z,95641.56
2019-02-17T23:02:05.164Z,95647.02
2019-02-17T23:05:12.857Z,95642.41
2019-02-17T23:08:20.626Z,95642.68
2019-02-17T23:11:28.470Z,95636.06
2019-02-17T23:14:36.350Z,95638.45
2019-02-17T23:17:44.895Z,95645.84
2019-02-17T23:20:52.195Z,95644.49
2019-02-17T23:24:00.680Z,95640.80
2019-02-17T23:27:08.096Z,95638.34
2019-02-17T23:30:15.800Z,95641.05
2019-02-17T23:33:23.308Z,95642.27
2019-02-17T23:36:30.697Z,95637.28
2019-02-17T23:39:37.878Z,95639.52
2019-02-17T23:42:45.792Z,95637.42
2019-02-17T23:45:53.391Z,95631.72
2019-02-17T23:49:00.686Z,95631.69
2019-02-17T23:52:08.381Z,95624.69
2019-02-17T23:55:15.778Z,95630.10
2019-02-17T23:58:23.410Z,95626.14
